Time;durP1;ratioP1;P1;durP2;ratioP2;P2;SDS_P1;SDS_P2;PMS_P1;PMS_P2;Temp;Humidity;BMP_temperature;BMP_pressure;BME280_temperature;BME280_humidity;BME280_pressure;Samples;Min_cycle;Max_cycle;Signal;HPM_P1;HPM_P2
2023/07/24 00:01:34;;;;;;;15.55;5.32;;;;;;;;;;5018145;28;20029;-75
2023/07/24 00:03:59;;;;;;;17.15;4.97;;;;;;;;;;5052274;28;20037;-74
2023/07/24 00:06:24;;;;;;;20.13;5.40;;;;;;;;;;5032373;28;20029;-76
2023/07/24 00:08:50;;;;;;;20.95;5.43;;;;;;;;;;5021014;28;20783;-77
2023/07/24 00:11:17;;;;;;;20.48;5.75;;;;;;;;;;5017804;28;20048;-74
2023/07/24 00:13:45;;;;;;;18.50;5.03;;;;;;;;;;5018026;28;20115;-74
2023/07/24 00:16:10;;;;;;;17.48;4.72;;;;;;;;;;5018790;28;20169;-76
2023/07/24 00:18:35;;;;;;;19.63;5.40;;;;;;;;;;5018457;28;20046;-73
2023/07/24 00:21:01;;;;;;;17.55;4.55;;;;;;;;;;5032771;28;20816;-75
2023/07/24 00:23:26;;;;;;;22.02;5.43;;;;;;;;;;5014923;28;21258;-74
2023/07/24 00:25:52;;;;;;;15.93;4.72;;;;;;;;;;5018235;28;20061;-76
2023/07/24 00:28:18;;;;;;;15.68;4.85;;;;;;;;;;5050150;28;20120;-75
2023/07/24 00:30:43;;;;;;;16.55;4.65;;;;;;;;;;5020137;28;22387;-75
2023/07/24 00:33:08;;;;;;;14.95;4.78;;;;;;;;;;5016813;28;20037;-75
2023/07/24 00:35:36;;;;;;;26.35;4.90;;;;;;;;;;5017630;28;20544;-75
2023/07/24 00:38:01;;;;;;;19.58;4.80;;;;;;;;;;5030609;28;20033;-76
2023/07/24 00:40:29;;;;;;;16.70;4.72;;;;;;;;;;5015879;28;20097;-75
2023/07/24 00:42:57;;;;;;;13.02;4.88;;;;;;;;;;5017458;28;20045;-74
2023/07/24 00:45:22;;;;;;;16.33;4.15;;;;;;;;;;5047906;28;20429;-73
2023/07/24 00:47:48;;;;;;;12.32;4.82;;;;;;;;;;5016788;28;20057;-74
2023/07/24 00:50:13;;;;;;;16.67;4.88;;;;;;;;;;5019018;28;20075;-74
2023/07/24 00:52:39;;;;;;;17.77;4.68;;;;;;;;;;5016783;28;20068;-76
2023/07/24 00:55:05;;;;;;;13.98;4.50;;;;;;;;;;4996669;28;20033;-77
2023/07/24 00:57:30;;;;;;;11.95;4.63;;;;;;;;;;5028349;28;22198;-75
2023/07/24 00:59:56;;;;;;;15.32;4.45;;;;;;;;;;4998571;28;20107;-74
2023/07/24 01:02:23;;;;;;;16.92;4.47;;;;;;;;;;5034529;28;20037;-76
2023/07/24 01:04:51;;;;;;;16.38;4.60;;;;;;;;;;5032320;28;20056;-76
2023/07/24 01:07:17;;;;;;;15.18;4.22;;;;;;;;;;5015489;28;20037;-74
2023/07/24 01:09:42;;;;;;;18.17;4.53;;;;;;;;;;5016172;28;20156;-73
2023/07/24 01:12:10;;;;;;;22.75;4.78;;;;;;;;;;5017551;28;20595;-76
2023/07/24 01:14:44;;;;;;;22.48;4.88;;;;;;;;;;5016993;28;20044;-74
2023/07/24 01:17:12;;;;;;;18.17;4.53;;;;;;;;;;5018497;28;20596;-69
2023/07/24 01:19:48;;;;;;;22.90;5.88;;;;;;;;;;5016521;28;20505;-68
2023/07/24 01:22:42;;;;;;;19.35;5.07;;;;;;;;;;5029315;28;20556;-68
2023/07/24 01:25:27;;;;;;;18.42;4.75;;;;;;;;;;4999415;28;20137;-68
2023/07/24 01:27:52;;;;;;;17.80;5.18;;;;;;;;;;5039985;28;20056;-69
2023/07/24 01:30:18;;;;;;;19.48;5.10;;;;;;;;;;5017272;28;20821;-68
2023/07/24 01:32:44;;;;;;;22.50;5.47;;;;;;;;;;5046035;28;20535;-70
2023/07/24 01:35:09;;;;;;;22.70;4.90;;;;;;;;;;5003355;28;20037;-68
2023/07/24 01:37:35;;;;;;;20.33;5.80;;;;;;;;;;5013397;28;20058;-69
2023/07/24 01:40:02;;;;;;;16.10;4.88;;;;;;;;;;5017611;28;20037;-69
2023/07/24 01:42:29;;;;;;;17.65;4.90;;;;;;;;;;5045448;28;20032;-68
2023/07/24 01:44:57;;;;;;;22.58;5.03;;;;;;;;;;5016685;28;20057;-68
2023/07/24 01:47:23;;;;;;;18.58;5.18;;;;;;;;;;5010553;28;20255;-69
2023/07/24 01:49:50;;;;;;;18.05;4.95;;;;;;;;;;5008216;28;20045;-71
2023/07/24 01:52:15;;;;;;;25.52;5.47;;;;;;;;;;5001487;28;20044;-70
2023/07/24 01:54:41;;;;;;;19.65;5.22;;;;;;;;;;5029472;28;20046;-69
2023/07/24 01:57:06;;;;;;;20.88;4.70;;;;;;;;;;5031282;28;20406;-71
2023/07/24 01:59:31;;;;;;;15.95;5.20;;;;;;;;;;5034308;28;20044;-71
2023/07/24 02:01:56;;;;;;;19.85;4.38;;;;;;;;;;5051438;28;20091;-68
2023/07/24 02:04:22;;;;;;;17.02;4.82;;;;;;;;;;5019357;28;20044;-70
2023/07/24 02:06:51;;;;;;;15.07;4.63;;;;;;;;;;5021354;28;20032;-69
2023/07/24 02:09:19;;;;;;;19.73;4.88;;;;;;;;;;5015975;28;20659;-69
2023/07/24 02:11:47;;;;;;;17.58;4.55;;;;;;;;;;5021016;28;20041;-70
2023/07/24 02:14:13;;;;;;;16.65;5.10;;;;;;;;;;5019171;28;20151;-69
2023/07/24 02:16:38;;;;;;;18.95;5.47;;;;;;;;;;5014248;28;20059;-76
2023/07/24 02:19:06;;;;;;;15.68;4.68;;;;;;;;;;5020816;28;20467;-74
2023/07/24 02:21:31;;;;;;;19.35;4.88;;;;;;;;;;5020710;28;20037;-74
2023/07/24 02:23:57;;;;;;;16.65;4.57;;;;;;;;;;5020759;28;20033;-71
2023/07/24 02:26:22;;;;;;;18.50;5.53;;;;;;;;;;5034881;28;20707;-75
2023/07/24 02:28:47;;;;;;;19.55;5.20;;;;;;;;;;5014953;28;20034;-76
2023/07/24 02:31:15;;;;;;;18.55;5.80;;;;;;;;;;5015551;28;20064;-75
2023/07/24 02:33:41;;;;;;;18.42;5.18;;;;;;;;;;5001739;28;20046;-76
2023/07/24 02:36:06;;;;;;;18.75;5.28;;;;;;;;;;5001050;28;20041;-76
2023/07/24 02:38:31;;;;;;;18.45;5.68;;;;;;;;;;5019732;28;20051;-74
2023/07/24 02:40:57;;;;;;;15.98;5.60;;;;;;;;;;5018644;28;20489;-75
2023/07/24 02:43:22;;;;;;;27.48;5.80;;;;;;;;;;5019475;28;20032;-75
2023/07/24 02:45:47;;;;;;;19.33;5.72;;;;;;;;;;5018263;28;20132;-74
2023/07/24 02:48:13;;;;;;;20.48;5.65;;;;;;;;;;5016591;28;20037;-76
2023/07/24 02:50:38;;;;;;;16.10;5.20;;;;;;;;;;5019032;28;20063;-74
2023/07/24 02:53:05;;;;;;;23.52;6.13;;;;;;;;;;5006674;28;20048;-73
2023/07/24 02:55:31;;;;;;;18.10;5.80;;;;;;;;;;5030707;28;20048;-75
2023/07/24 02:57:56;;;;;;;17.17;5.40;;;;;;;;;;4999273;28;20315;-73
2023/07/24 03:00:21;;;;;;;15.73;5.70;;;;;;;;;;5015075;28;20119;-76
2023/07/24 03:02:47;;;;;;;19.15;5.80;;;;;;;;;;4998196;28;20115;-74
2023/07/24 03:05:12;;;;;;;17.92;5.57;;;;;;;;;;5029886;28;20076;-75
2023/07/24 03:07:37;;;;;;;22.70;6.18;;;;;;;;;;4998217;28;20033;-74
2023/07/24 03:10:03;;;;;;;20.08;5.78;;;;;;;;;;5000363;28;20157;-75
2023/07/24 03:12:28;;;;;;;21.45;5.72;;;;;;;;;;5025791;28;20038;-74
2023/07/24 03:14:55;;;;;;;16.23;5.78;;;;;;;;;;5020742;28;20246;-74
2023/07/24 03:17:22;;;;;;;22.23;6.03;;;;;;;;;;5000509;28;20033;-74
2023/07/24 03:19:48;;;;;;;13.80;6.07;;;;;;;;;;4998182;28;20048;-73
2023/07/24 03:22:13;;;;;;;19.05;5.75;;;;;;;;;;4997127;28;20588;-72
2023/07/24 03:24:43;;;;;;;17.52;5.45;;;;;;;;;;5005434;28;20037;-72
2023/07/24 03:27:10;;;;;;;15.90;5.45;;;;;;;;;;5014690;28;20052;-74
2023/07/24 03:29:37;;;;;;;23.75;6.22;;;;;;;;;;5034245;28;20041;-75
2023/07/24 03:32:02;;;;;;;18.77;6.13;;;;;;;;;;5018723;28;20052;-74
2023/07/24 03:34:30;;;;;;;20.73;6.55;;;;;;;;;;5050920;28;20037;-74
2023/07/24 03:36:57;;;;;;;24.17;6.75;;;;;;;;;;5020806;28;20521;-75
2023/07/24 03:39:23;;;;;;;21.48;6.10;;;;;;;;;;5016876;28;20108;-75
2023/07/24 03:41:50;;;;;;;18.55;6.70;;;;;;;;;;5018159;28;20038;-74
2023/07/24 03:44:16;;;;;;;19.38;6.47;;;;;;;;;;5018890;28;20059;-72
2023/07/24 03:46:41;;;;;;;20.70;6.68;;;;;;;;;;5019052;28;20037;-74
2023/07/24 03:49:06;;;;;;;17.23;6.50;;;;;;;;;;5012398;28;22277;-75
2023/07/24 03:51:33;;;;;;;23.08;6.15;;;;;;;;;;4998161;28;20984;-75
2023/07/24 03:54:00;;;;;;;24.35;6.80;;;;;;;;;;5018325;28;20029;-73
2023/07/24 03:56:26;;;;;;;25.02;6.57;;;;;;;;;;5018300;28;20033;-74
2023/07/24 03:58:52;;;;;;;24.08;7.03;;;;;;;;;;5019235;28;20435;-75
2023/07/24 04:01:19;;;;;;;26.75;6.47;;;;;;;;;;5016271;28;20584;-73
2023/07/24 04:03:45;;;;;;;20.75;6.25;;;;;;;;;;5019568;28;20033;-73
2023/07/24 04:06:10;;;;;;;26.38;6.97;;;;;;;;;;5018717;28;20045;-74
2023/07/24 04:08:35;;;;;;;21.25;6.65;;;;;;;;;;5019323;28;22409;-73
2023/07/24 04:11:00;;;;;;;26.38;7.13;;;;;;;;;;5017888;28;20045;-74
2023/07/24 04:13:26;;;;;;;19.27;6.85;;;;;;;;;;5017606;28;20029;-74
2023/07/24 04:15:51;;;;;;;18.23;7.03;;;;;;;;;;5019570;28;20029;-76
2023/07/24 04:18:19;;;;;;;23.08;6.75;;;;;;;;;;5018222;28;20037;-74
2023/07/24 04:20:44;;;;;;;20.38;6.22;;;;;;;;;;5017918;28;20052;-74
2023/07/24 04:23:09;;;;;;;19.50;6.20;;;;;;;;;;5019575;28;20079;-71
2023/07/24 04:25:39;;;;;;;21.23;6.63;;;;;;;;;;5016330;28;20559;-72
2023/07/24 04:28:05;;;;;;;27.58;6.47;;;;;;;;;;5018902;28;20068;-74
2023/07/24 04:30:30;;;;;;;17.73;5.88;;;;;;;;;;5017866;28;20040;-72
2023/07/24 04:32:55;;;;;;;21.55;6.32;;;;;;;;;;5016527;28;20105;-72
2023/07/24 04:35:20;;;;;;;23.75;6.15;;;;;;;;;;5015276;28;20039;-73
2023/07/24 04:37:46;;;;;;;19.15;5.78;;;;;;;;;;4997629;28;20040;-73
2023/07/24 04:40:11;;;;;;;19.55;6.32;;;;;;;;;;4997202;28;20056;-73
2023/07/24 04:42:36;;;;;;;18.33;6.25;;;;;;;;;;4994696;28;20037;-73
2023/07/24 04:45:04;;;;;;;20.17;6.63;;;;;;;;;;5015923;28;20048;-73
2023/07/24 04:47:29;;;;;;;19.45;6.45;;;;;;;;;;5003578;28;20033;-75
2023/07/24 04:49:57;;;;;;;13.77;5.72;;;;;;;;;;4996777;28;20037;-73
2023/07/24 04:52:22;;;;;;;17.10;5.90;;;;;;;;;;4996464;28;20034;-73
2023/07/24 04:54:47;;;;;;;21.52;7.05;;;;;;;;;;5026625;28;20297;-73
2023/07/24 04:57:12;;;;;;;23.02;6.45;;;;;;;;;;4979516;28;20049;-73
2023/07/24 04:59:38;;;;;;;25.42;6.82;;;;;;;;;;4996261;28;20629;-75
2023/07/24 05:02:08;;;;;;;19.95;6.63;;;;;;;;;;4994847;28;20040;-72
2023/07/24 05:04:34;;;;;;;18.52;6.43;;;;;;;;;;4994434;28;20029;-73
2023/07/24 05:06:59;;;;;;;21.02;6.93;;;;;;;;;;5025971;28;20045;-71
2023/07/24 05:09:24;;;;;;;22.15;7.13;;;;;;;;;;5014597;28;20041;-73
2023/07/24 05:11:52;;;;;;;21.45;6.60;;;;;;;;;;5017950;28;20051;-76
2023/07/24 05:14:17;;;;;;;20.88;7.00;;;;;;;;;;5012913;28;20117;-76
2023/07/24 05:16:42;;;;;;;20.08;6.88;;;;;;;;;;5018387;28;20076;-75
2023/07/24 05:19:08;;;;;;;17.75;6.75;;;;;;;;;;5045049;28;20041;-78
2023/07/24 05:21:33;;;;;;;20.13;7.35;;;;;;;;;;5009891;28;20033;-76
2023/07/24 05:23:59;;;;;;;19.98;7.25;;;;;;;;;;5015566;28;20039;-77
2023/07/24 05:26:24;;;;;;;16.23;6.95;;;;;;;;;;5015958;28;20540;-76
2023/07/24 05:28:52;;;;;;;20.48;7.20;;;;;;;;;;5016814;28;20113;-75
2023/07/24 05:31:20;;;;;;;15.10;6.40;;;;;;;;;;5014251;28;20047;-74
2023/07/24 05:33:47;;;;;;;19.77;6.38;;;;;;;;;;5010348;28;20041;-75
2023/07/24 05:36:13;;;;;;;23.40;6.88;;;;;;;;;;4997765;28;20045;-74
2023/07/24 05:38:38;;;;;;;20.08;6.85;;;;;;;;;;4998843;28;20037;-77
2023/07/24 05:41:06;;;;;;;14.85;5.43;;;;;;;;;;4996248;28;20056;-77
2023/07/24 05:43:32;;;;;;;18.70;6.55;;;;;;;;;;4994475;28;20040;-75
2023/07/24 05:45:58;;;;;;;25.27;6.63;;;;;;;;;;4996734;28;20033;-73
2023/07/24 05:48:23;;;;;;;22.23;6.55;;;;;;;;;;4996083;28;20033;-74
2023/07/24 05:50:49;;;;;;;17.40;6.28;;;;;;;;;;5027759;28;20041;-75
2023/07/24 05:53:17;;;;;;;20.80;5.82;;;;;;;;;;4997237;28;20175;-75
2023/07/24 05:55:43;;;;;;;22.45;6.70;;;;;;;;;;4995088;28;20068;-75
2023/07/24 05:58:11;;;;;;;19.50;6.57;;;;;;;;;;5027703;28;20046;-77
2023/07/24 06:00:36;;;;;;;17.63;6.60;;;;;;;;;;5014823;28;20146;-78
2023/07/24 06:03:02;;;;;;;23.88;7.25;;;;;;;;;;5013529;28;20759;-77
2023/07/24 06:05:27;;;;;;;20.85;6.78;;;;;;;;;;5044003;28;20033;-76
2023/07/24 06:07:52;;;;;;;18.83;6.72;;;;;;;;;;5013215;28;20034;-78
2023/07/24 06:10:18;;;;;;;22.05;7.13;;;;;;;;;;5018542;28;20041;-77
2023/07/24 06:12:43;;;;;;;25.67;6.80;;;;;;;;;;5003099;28;20029;-76
2023/07/24 06:15:08;;;;;;;17.65;6.75;;;;;;;;;;4995843;28;20037;-77
2023/07/24 06:17:34;;;;;;;17.02;6.88;;;;;;;;;;4997242;28;20042;-77
2023/07/24 06:19:59;;;;;;;19.98;7.40;;;;;;;;;;5027509;28;20038;-74
2023/07/24 06:22:26;;;;;;;22.23;7.00;;;;;;;;;;5004515;28;20045;-78
2023/07/24 06:24:52;;;;;;;19.23;7.00;;;;;;;;;;5011826;28;20094;-78
2023/07/24 06:27:17;;;;;;;22.25;7.25;;;;;;;;;;5013702;28;20942;-76
2023/07/24 06:29:42;;;;;;;14.40;6.80;;;;;;;;;;5013770;28;20041;-76
2023/07/24 06:32:08;;;;;;;17.58;6.78;;;;;;;;;;5041491;28;20485;-79
2023/07/24 06:34:34;;;;;;;17.40;7.00;;;;;;;;;;5012884;28;20033;-78
2023/07/24 06:36:59;;;;;;;20.63;6.97;;;;;;;;;;5014995;28;20087;-78
2023/07/24 06:39:25;;;;;;;18.42;6.63;;;;;;;;;;5019956;28;20039;-79
2023/07/24 06:41:54;;;;;;;20.08;6.88;;;;;;;;;;5019213;28;20037;-77
2023/07/24 06:44:19;;;;;;;19.00;6.68;;;;;;;;;;4999798;28;20037;-78
2023/07/24 06:46:44;;;;;;;20.92;7.10;;;;;;;;;;5000064;28;20045;-78
2023/07/24 06:49:11;;;;;;;22.48;6.97;;;;;;;;;;5031255;28;20053;-77
2023/07/24 06:51:37;;;;;;;18.45;7.07;;;;;;;;;;4996109;28;20111;-78
2023/07/24 06:54:05;;;;;;;19.50;6.95;;;;;;;;;;4995995;28;20044;-78
2023/07/24 06:56:33;;;;;;;23.15;7.40;;;;;;;;;;4993096;28;20065;-80
2023/07/24 06:58:58;;;;;;;15.85;6.82;;;;;;;;;;5023122;28;20046;-79
2023/07/24 07:01:23;;;;;;;24.10;7.25;;;;;;;;;;5003693;28;20042;-78
2023/07/24 07:03:49;;;;;;;19.70;7.28;;;;;;;;;;5017088;28;20037;-76
2023/07/24 07:06:14;;;;;;;21.67;7.53;;;;;;;;;;5033572;28;20082;-76
2023/07/24 07:08:39;;;;;;;15.38;7.32;;;;;;;;;;5018215;28;20126;-78
2023/07/24 07:11:05;;;;;;;15.82;7.82;;;;;;;;;;5058425;28;20425;-76
2023/07/24 07:13:32;;;;;;;19.65;8.07;;;;;;;;;;5027695;28;20060;-78
2023/07/24 07:15:58;;;;;;;15.52;8.23;;;;;;;;;;5020809;28;20032;-77
2023/07/24 07:18:23;;;;;;;19.98;8.40;;;;;;;;;;5018024;28;20037;-77
2023/07/24 07:20:51;;;;;;;21.63;8.25;;;;;;;;;;5014088;28;20037;-76
2023/07/24 07:23:16;;;;;;;21.60;8.40;;;;;;;;;;5015012;28;20029;-74
2023/07/24 07:25:45;;;;;;;25.73;8.57;;;;;;;;;;5044200;28;20763;-77
2023/07/24 07:28:14;;;;;;;21.65;8.38;;;;;;;;;;4992464;28;20050;-77
2023/07/24 07:30:39;;;;;;;23.45;9.45;;;;;;;;;;4992182;28;20050;-69
2023/07/24 07:33:05;;;;;;;22.92;8.50;;;;;;;;;;4997627;28;20418;-68
2023/07/24 07:35:34;;;;;;;19.48;8.25;;;;;;;;;;5011332;28;20611;-69
2023/07/24 07:37:59;;;;;;;18.92;9.13;;;;;;;;;;5003055;28;20073;-67
2023/07/24 07:40:26;;;;;;;21.45;8.60;;;;;;;;;;5023272;28;20769;-69
2023/07/24 07:42:52;;;;;;;17.38;8.80;;;;;;;;;;5006453;28;20060;-70
2023/07/24 07:45:17;;;;;;;22.65;8.90;;;;;;;;;;4993566;28;20960;-70
2023/07/24 07:47:45;;;;;;;22.73;9.48;;;;;;;;;;4994712;28;20180;-70
2023/07/24 07:50:12;;;;;;;19.60;9.10;;;;;;;;;;5014312;28;20558;-70
2023/07/24 07:52:38;;;;;;;19.23;9.07;;;;;;;;;;5017813;28;20037;-68
2023/07/24 07:55:05;;;;;;;20.33;9.95;;;;;;;;;;5048712;28;20025;-69
2023/07/24 07:57:33;;;;;;;23.10;9.10;;;;;;;;;;5016725;28;22462;-71
2023/07/24 08:00:01;;;;;;;15.95;9.00;;;;;;;;;;5044126;28;20590;-70
2023/07/24 08:02:27;;;;;;;17.25;8.70;;;;;;;;;;5016570;28;20037;-70
2023/07/24 08:04:52;;;;;;;19.67;8.95;;;;;;;;;;5016030;28;20120;-70
2023/07/24 08:07:20;;;;;;;19.08;9.13;;;;;;;;;;5015251;28;20033;-69
2023/07/24 08:09:45;;;;;;;18.20;9.45;;;;;;;;;;5013991;28;20037;-69
2023/07/24 08:12:11;;;;;;;20.42;8.70;;;;;;;;;;5035247;28;20029;-70
2023/07/24 08:14:38;;;;;;;21.50;8.27;;;;;;;;;;5044093;28;20033;-69
2023/07/24 08:17:04;;;;;;;17.70;7.68;;;;;;;;;;5014212;28;20029;-70
2023/07/24 08:19:29;;;;;;;19.40;8.30;;;;;;;;;;5026989;28;20651;-68
2023/07/24 08:21:55;;;;;;;16.30;7.35;;;;;;;;;;5015991;28;20666;-70
2023/07/24 08:24:20;;;;;;;17.02;7.80;;;;;;;;;;5002177;28;20033;-69
2023/07/24 08:26:45;;;;;;;14.70;7.05;;;;;;;;;;4998162;28;20506;-69
2023/07/24 08:29:11;;;;;;;14.18;7.32;;;;;;;;;;4998642;28;20041;-69
2023/07/24 08:31:36;;;;;;;20.27;6.78;;;;;;;;;;5003133;28;21757;-69
2023/07/24 08:34:01;;;;;;;17.77;7.63;;;;;;;;;;5017286;28;20826;-71
2023/07/24 08:36:29;;;;;;;14.57;7.40;;;;;;;;;;5011490;28;20072;-70
2023/07/24 08:38:54;;;;;;;14.43;6.65;;;;;;;;;;5015394;28;20041;-68
2023/07/24 08:41:20;;;;;;;17.23;6.40;;;;;;;;;;5017033;28;20041;-70
2023/07/24 08:43:45;;;;;;;15.75;6.82;;;;;;;;;;5016412;28;20068;-69
2023/07/24 08:46:11;;;;;;;13.57;5.97;;;;;;;;;;5014748;28;20124;-70
2023/07/24 08:48:42;;;;;;;13.73;6.32;;;;;;;;;;5009740;28;20180;-70
2023/07/24 08:51:11;;;;;;;12.20;6.15;;;;;;;;;;4991120;28;20122;-67
2023/07/24 08:53:37;;;;;;;16.98;6.00;;;;;;;;;;4990921;28;20037;-68
2023/07/24 08:56:03;;;;;;;16.65;6.30;;;;;;;;;;4996679;28;20621;-68
2023/07/24 08:58:29;;;;;;;17.48;5.97;;;;;;;;;;4992889;28;20396;-68
2023/07/24 09:00:56;;;;;;;16.05;6.90;;;;;;;;;;4991657;28;20041;-66
2023/07/24 09:03:21;;;;;;;15.60;6.35;;;;;;;;;;5022611;28;20490;-68
2023/07/24 09:05:46;;;;;;;15.13;5.95;;;;;;;;;;4992246;28;20119;-68
2023/07/24 09:08:14;;;;;;;14.07;6.05;;;;;;;;;;4988648;28;20041;-66
2023/07/24 09:10:40;;;;;;;15.52;6.05;;;;;;;;;;5005677;28;20204;-67
2023/07/24 09:13:05;;;;;;;14.20;6.05;;;;;;;;;;4988077;28;20378;-67
2023/07/24 09:15:43;;;;;;;13.05;5.85;;;;;;;;;;4991785;28;20115;-68
2023/07/24 09:18:09;;;;;;;9.35;5.07;;;;;;;;;;4991593;28;20616;-68
2023/07/24 09:20:44;;;;;;;11.90;4.97;;;;;;;;;;5025800;28;20073;-68
2023/07/24 09:23:10;;;;;;;10.70;4.75;;;;;;;;;;5008108;28;20036;-68
2023/07/24 09:25:36;;;;;;;12.23;4.78;;;;;;;;;;5009784;28;20045;-69
2023/07/24 09:28:13;;;;;;;9.93;5.28;;;;;;;;;;5010387;28;20702;-69
2023/07/24 09:30:39;;;;;;;13.65;5.10;;;;;;;;;;5010090;28;20061;-68
2023/07/24 09:33:05;;;;;;;10.98;5.20;;;;;;;;;;5014686;28;20094;-70
2023/07/24 09:35:32;;;;;;;12.35;4.80;;;;;;;;;;4991122;28;20042;-68
2023/07/24 09:38:04;;;;;;;12.77;5.53;;;;;;;;;;5024898;28;20041;-69
2023/07/24 09:40:37;;;;;;;17.08;5.60;;;;;;;;;;5004185;28;20101;-69
2023/07/24 09:43:21;;;;;;;12.73;5.57;;;;;;;;;;5009024;28;20056;-67
2023/07/24 09:45:47;;;;;;;27.67;7.70;;;;;;;;;;5041921;28;20459;-67
2023/07/24 09:48:14;;;;;;;36.20;9.18;;;;;;;;;;4990595;28;20486;-71
2023/07/24 09:50:45;;;;;;;26.08;7.47;;;;;;;;;;5000058;28;20843;-73
2023/07/24 09:53:17;;;;;;;19.10;7.45;;;;;;;;;;5011445;28;21093;-72
2023/07/24 09:56:05;;;;;;;31.38;8.82;;;;;;;;;;4991834;28;20060;-72
2023/07/24 09:58:32;;;;;;;45.83;11.55;;;;;;;;;;5015983;28;20055;-72
2023/07/24 10:00:58;;;;;;;46.42;10.63;;;;;;;;;;5007547;28;20132;-71
2023/07/24 10:03:26;;;;;;;37.40;10.85;;;;;;;;;;5004107;28;21930;-72
2023/07/24 10:05:54;;;;;;;28.33;8.90;;;;;;;;;;5021113;28;20513;-73
2023/07/24 10:08:19;;;;;;;26.02;9.48;;;;;;;;;;4991294;28;20025;-70
2023/07/24 10:10:45;;;;;;;23.77;7.35;;;;;;;;;;4992581;28;20304;-68
2023/07/24 10:13:14;;;;;;;20.05;5.70;;;;;;;;;;5013819;28;20033;-72
2023/07/24 10:15:43;;;;;;;22.17;5.28;;;;;;;;;;5028405;28;20041;-70
2023/07/24 10:18:09;;;;;;;20.15;5.80;;;;;;;;;;5013301;28;20044;-70
2023/07/24 10:20:36;;;;;;;25.63;7.05;;;;;;;;;;5044458;28;20037;-73
2023/07/24 10:23:02;;;;;;;15.93;7.22;;;;;;;;;;5014167;28;20121;-71
2023/07/24 10:25:31;;;;;;;16.17;7.85;;;;;;;;;;5013590;28;20796;-71
2023/07/24 10:28:01;;;;;;;22.15;8.98;;;;;;;;;;5010146;28;20041;-71
2023/07/24 10:30:29;;;;;;;23.45;10.23;;;;;;;;;;5011938;28;20577;-71
2023/07/24 10:33:02;;;;;;;23.13;10.38;;;;;;;;;;5029420;28;20038;-71
2023/07/24 10:35:38;;;;;;;22.83;8.95;;;;;;;;;;4994201;28;20037;-72
2023/07/24 10:38:03;;;;;;;12.23;6.30;;;;;;;;;;5006414;28;20040;-73
2023/07/24 10:40:30;;;;;;;13.63;6.70;;;;;;;;;;5002117;28;20216;-72
2023/07/24 10:43:06;;;;;;;16.00;6.40;;;;;;;;;;4994709;28;20057;-72
2023/07/24 10:45:50;;;;;;;14.75;7.03;;;;;;;;;;4993391;28;20044;-71
2023/07/24 10:48:20;;;;;;;13.93;7.85;;;;;;;;;;4993400;28;20050;-71
2023/07/24 10:50:47;;;;;;;10.18;7.75;;;;;;;;;;4992969;28;20116;-71
2023/07/24 10:53:17;;;;;;;11.80;7.85;;;;;;;;;;5013889;28;20048;-70
2023/07/24 10:55:43;;;;;;;9.52;7.47;;;;;;;;;;5017562;28;20762;-71
2023/07/24 10:58:08;;;;;;;15.48;7.47;;;;;;;;;;5017490;28;20036;-70
2023/07/24 11:00:34;;;;;;;15.32;7.60;;;;;;;;;;5025448;28;20065;-70
2023/07/24 11:02:59;;;;;;;13.40;7.45;;;;;;;;;;5030071;28;20205;-71
2023/07/24 11:05:25;;;;;;;8.80;6.10;;;;;;;;;;5000416;28;20041;-69
2023/07/24 11:07:50;;;;;;;11.93;6.00;;;;;;;;;;5016736;28;20247;-69
2023/07/24 11:10:19;;;;;;;10.98;5.45;;;;;;;;;;5040490;28;20112;-70
2023/07/24 11:12:45;;;;;;;9.52;5.00;;;;;;;;;;5013129;28;20576;-70
2023/07/24 11:15:11;;;;;;;9.48;4.80;;;;;;;;;;5011420;28;20215;-70
2023/07/24 11:17:37;;;;;;;7.35;3.63;;;;;;;;;;5009199;28;20043;-70
2023/07/24 11:20:06;;;;;;;8.13;2.55;;;;;;;;;;5014637;28;20552;-69
2023/07/24 11:22:32;;;;;;;5.28;2.00;;;;;;;;;;5014229;28;20064;-69
2023/07/24 11:24:58;;;;;;;11.20;2.58;;;;;;;;;;5009839;28;20110;-69
2023/07/24 11:27:26;;;;;;;4.60;1.90;;;;;;;;;;5011253;28;20049;-70
2023/07/24 11:29:51;;;;;;;5.72;2.20;;;;;;;;;;5044050;28;20545;-68
2023/07/24 11:32:20;;;;;;;3.80;1.98;;;;;;;;;;5010943;28;20064;-68
2023/07/24 11:34:48;;;;;;;6.53;1.70;;;;;;;;;;5011319;28;20323;-68
2023/07/24 11:37:14;;;;;;;6.50;1.60;;;;;;;;;;5013569;28;20033;-68
2023/07/24 11:39:39;;;;;;;5.28;1.67;;;;;;;;;;5012745;28;20616;-69
2023/07/24 11:42:05;;;;;;;5.88;1.30;;;;;;;;;;5013391;28;20144;-68
2023/07/24 11:44:30;;;;;;;4.03;1.50;;;;;;;;;;5014204;28;22480;-68
2023/07/24 11:47:02;;;;;;;7.72;1.70;;;;;;;;;;5011651;28;20490;-68
2023/07/24 11:49:27;;;;;;;;;;;;;;;;;;4995168;28;20033;-68
2023/07/24 11:51:53;;;;;;;6.80;1.75;;;;;;;;;;4997966;28;19928;-67
2023/07/24 11:54:18;;;;;;;5.50;1.70;;;;;;;;;;5027873;28;20603;-68
2023/07/24 11:56:44;;;;;;;10.75;2.15;;;;;;;;;;5013211;28;20427;-67
2023/07/24 11:59:10;;;;;;;8.93;2.28;;;;;;;;;;5005239;28;20034;-68
2023/07/24 12:01:35;;;;;;;7.90;2.05;;;;;;;;;;5007401;28;21886;-68
2023/07/24 12:04:01;;;;;;;14.98;2.30;;;;;;;;;;4990275;28;20653;-70
2023/07/24 12:06:26;;;;;;;12.07;2.10;;;;;;;;;;4995106;28;20042;-69
2023/07/24 12:09:00;;;;;;;10.07;2.40;;;;;;;;;;4994610;28;20543;-68
2023/07/24 12:11:26;;;;;;;10.98;2.30;;;;;;;;;;4992235;28;20052;-69
2023/07/24 12:13:53;;;;;;;10.45;2.20;;;;;;;;;;4990340;28;20602;-73
2023/07/24 12:16:19;;;;;;;14.88;2.30;;;;;;;;;;4993003;28;20117;-71
2023/07/24 12:18:46;;;;;;;11.63;2.90;;;;;;;;;;5039359;28;20047;-72
2023/07/24 12:21:11;;;;;;;12.13;2.50;;;;;;;;;;5041496;28;20037;-70
2023/07/24 12:23:37;;;;;;;10.40;2.42;;;;;;;;;;5013141;28;20068;-70
2023/07/24 12:26:05;;;;;;;13.38;2.65;;;;;;;;;;5012186;28;20101;-72
2023/07/24 12:28:30;;;;;;;13.68;2.60;;;;;;;;;;5013255;28;20656;-69
2023/07/24 12:30:56;;;;;;;9.68;2.20;;;;;;;;;;5012182;28;20053;-71
2023/07/24 12:33:23;;;;;;;9.98;2.38;;;;;;;;;;5011769;28;20032;-71
2023/07/24 12:35:52;;;;;;;12.85;2.97;;;;;;;;;;5014254;28;20033;-71
2023/07/24 12:38:17;;;;;;;9.98;2.50;;;;;;;;;;5013692;28;20090;-70
2023/07/24 12:40:43;;;;;;;13.23;2.97;;;;;;;;;;5043963;28;20036;-69
2023/07/24 12:43:10;;;;;;;11.07;2.35;;;;;;;;;;5011207;28;20076;-69
2023/07/24 12:45:38;;;;;;;12.32;2.50;;;;;;;;;;5015774;28;20043;-69
2023/07/24 12:48:04;;;;;;;10.90;2.50;;;;;;;;;;5042629;28;21115;-71
2023/07/24 12:50:31;;;;;;;11.73;2.00;;;;;;;;;;5009130;28;20132;-69
2023/07/24 12:52:57;;;;;;;9.45;2.22;;;;;;;;;;5013900;28;20063;-72
2023/07/24 12:55:24;;;;;;;12.48;2.35;;;;;;;;;;5012391;28;20041;-71
2023/07/24 12:57:49;;;;;;;10.70;2.13;;;;;;;;;;5013456;28;20551;-72
2023/07/24 13:00:15;;;;;;;10.05;2.22;;;;;;;;;;5013606;28;20048;-69
2023/07/24 13:02:42;;;;;;;11.82;2.28;;;;;;;;;;5011851;28;20028;-71
2023/07/24 13:05:10;;;;;;;9.93;1.85;;;;;;;;;;5042450;28;20513;-69
2023/07/24 13:07:38;;;;;;;7.15;1.50;;;;;;;;;;5036137;28;20036;-72
2023/07/24 13:10:03;;;;;;;13.55;2.45;;;;;;;;;;5013395;28;20037;-72
2023/07/24 13:12:29;;;;;;;10.52;2.17;;;;;;;;;;5010603;28;20093;-70
2023/07/24 13:14:56;;;;;;;9.20;1.63;;;;;;;;;;4994105;28;21040;-71
2023/07/24 13:17:22;;;;;;;6.55;1.55;;;;;;;;;;4993036;28;20026;-69
2023/07/24 13:19:49;;;;;;;7.88;1.42;;;;;;;;;;5004084;28;20033;-71
2023/07/24 13:22:14;;;;;;;5.22;1.35;;;;;;;;;;5011310;28;20029;-71
2023/07/24 13:24:40;;;;;;;10.07;2.05;;;;;;;;;;5008946;28;20175;-69
2023/07/24 13:27:05;;;;;;;8.70;1.75;;;;;;;;;;5006736;28;21520;-69
2023/07/24 13:29:31;;;;;;;7.65;1.63;;;;;;;;;;5042640;28;20029;-68
2023/07/24 13:31:56;;;;;;;6.85;1.75;;;;;;;;;;5012784;28;20049;-69
2023/07/24 13:34:23;;;;;;;10.30;2.00;;;;;;;;;;4992706;28;20107;-69
2023/07/24 13:36:49;;;;;;;10.15;2.17;;;;;;;;;;4989663;28;20896;-70
2023/07/24 13:39:14;;;;;;;11.00;2.15;;;;;;;;;;4992531;28;20026;-70
2023/07/24 13:41:39;;;;;;;15.65;2.08;;;;;;;;;;4998442;28;20087;-69
2023/07/24 13:44:05;;;;;;;8.45;1.73;;;;;;;;;;5001619;28;20045;-71
2023/07/24 13:46:30;;;;;;;7.50;1.55;;;;;;;;;;4992905;28;20109;-69
2023/07/24 13:48:55;;;;;;;8.07;1.92;;;;;;;;;;5014512;28;20040;-71
2023/07/24 13:51:21;;;;;;;8.55;1.60;;;;;;;;;;5014192;28;20036;-68
2023/07/24 13:53:48;;;;;;;8.32;1.45;;;;;;;;;;5012444;28;20078;-67
2023/07/24 13:56:15;;;;;;;10.85;1.80;;;;;;;;;;5010915;28;20029;-70
2023/07/24 13:58:41;;;;;;;3.90;1.02;;;;;;;;;;5011712;28;20033;-72
2023/07/24 14:01:08;;;;;;;4.50;1.30;;;;;;;;;;5039522;28;20052;-69
2023/07/24 14:03:34;;;;;;;9.32;1.77;;;;;;;;;;5014996;28;20681;-69
2023/07/24 14:05:59;;;;;;;8.80;1.08;;;;;;;;;;5041378;28;20052;-69
2023/07/24 14:08:24;;;;;;;8.15;1.45;;;;;;;;;;5009225;28;20047;-68
2023/07/24 14:10:50;;;;;;;6.55;1.20;;;;;;;;;;5005832;28;20041;-68
2023/07/24 14:13:15;;;;;;;4.85;1.00;;;;;;;;;;5043486;28;20632;-69
2023/07/24 14:15:41;;;;;;;6.57;1.40;;;;;;;;;;5013431;28;20891;-72
2023/07/24 14:18:06;;;;;;;6.28;1.25;;;;;;;;;;4994326;28;20085;-73
2023/07/24 14:20:31;;;;;;;7.53;1.50;;;;;;;;;;5008678;28;20043;-72
2023/07/24 14:22:57;;;;;;;8.25;1.67;;;;;;;;;;5010622;28;20045;-72
2023/07/24 14:25:22;;;;;;;11.55;1.67;;;;;;;;;;5030390;28;20036;-73
2023/07/24 14:27:47;;;;;;;6.03;1.40;;;;;;;;;;5012616;28;20100;-71